This is the latest recevied weather packets stored in our database for station/object DO1BDB-12. If no packets are shown the sender has not sent any weather packets the latest 10 day(s).
| Time | Temp. | Humidity | Pressure | Rain* | Wind** | Luminosity | Snow |
|---|---|---|---|---|---|---|---|
| 1777469726 | 16.67° C | 28% | 103 hPa | - | - | - | - |
| 1777469661 | 16.11° C | 28% | 103 hPa | - | - | - | - |
| 1777469595 | 17.22° C | 29% | 103 hPa | - | - | - | - |
| 1777469529 | 17.78° C | 28% | 103 hPa | - | - | - | - |
| 1777469463 | 18.89° C | 26% | 103 hPa | - | - | - | - |
| 1777469397 | 18.89° C | 26% | 103 hPa | - | - | - | - |
| 1777469331 | 17.78° C | 29% | 103 hPa | - | - | - | - |
| 1777469266 | 17.22° C | 29% | 103 hPa | - | - | - | - |
| 1777469200 | 17.78° C | 29% | 103 hPa | - | - | - | - |
| 1777469134 | 17.22° C | 30% | 103 hPa | - | - | - | - |
| 1777469068 | 16.67° C | 31% | 103 hPa | - | - | - | - |
| 1777469002 | 16.67° C | 32% | 103 hPa | - | - | - | - |
| 1777468936 | 14.44° C | 33% | 103 hPa | - | - | - | - |
| 1777468870 | 13.89° C | 33% | 103 hPa | - | - | - | - |
| 1777468805 | 15° C | 33% | 103 hPa | - | - | - | - |
| 1777468739 | 14.44° C | 32% | 103 hPa | - | - | - | - |
| 1777468673 | 16.11° C | 32% | 103 hPa | - | - | - | - |
| 1777468607 | 15° C | 32% | 103 hPa | - | - | - | - |
| 1777468542 | 16.67° C | 31% | 103 hPa | - | - | - | - |
| 1777468475 | 16.11° C | 30% | 103 hPa | - | - | - | - |
| 1777468410 | 15.56° C | 32% | 103 hPa | - | - | - | - |
| 1777468344 | 15° C | 31% | 103 hPa | - | - | - | - |
| 1777468278 | 18.33° C | 29% | 103 hPa | - | - | - | - |
| 1777468212 | 18.33° C | 29% | 103 hPa | - | - | - | - |
| 1777468146 | 17.22° C | 30% | 103 hPa | - | - | - | - |
* Rain since midnight (hover to see other rain measurements)
** Current wind speed in m/s (hover to see current wind gust speed)